createdAt,value
2022-11-24T00:00:36.789Z,5.94
2022-11-24T00:01:38.541Z,5.97
2022-11-24T00:02:40.061Z,6.00
2022-11-24T00:03:42.060Z,6.08
2022-11-24T00:04:43.505Z,6.13
2022-11-24T00:05:44.981Z,6.19
2022-11-24T00:06:46.970Z,6.19
2022-11-24T00:07:48.457Z,6.23
2022-11-24T00:08:50.294Z,6.23
2022-11-24T00:09:51.730Z,6.28
2022-11-24T00:10:53.128Z,6.33
2022-11-24T00:11:54.892Z,6.35
2022-11-24T00:12:56.328Z,6.31
2022-11-24T00:13:58.593Z,6.30
2022-11-24T00:15:00.064Z,6.28
2022-11-24T00:16:23.333Z,6.23
2022-11-24T00:17:25.044Z,6.26
2022-11-24T00:18:27.329Z,6.19
2022-11-24T00:19:28.773Z,6.19
2022-11-24T00:20:30.272Z,6.20
2022-11-24T00:21:33.080Z,6.19
2022-11-24T00:22:34.487Z,6.11
2022-11-24T00:23:36.414Z,6.09
2022-11-24T00:24:37.966Z,6.11
2022-11-24T00:25:39.369Z,6.14
2022-11-24T00:26:41.176Z,6.19
2022-11-24T00:27:42.620Z,6.23
2022-11-24T00:28:45.570Z,6.23
2022-11-24T00:29:46.979Z,6.19
2022-11-24T00:30:48.508Z,6.22
2022-11-24T00:31:50.362Z,6.23
2022-11-24T00:32:52.989Z,6.20
2022-11-24T00:33:57.958Z,6.26
2022-11-24T00:34:59.393Z,6.24
2022-11-24T00:36:01.109Z,6.25
2022-11-24T00:37:02.869Z,6.28
2022-11-24T00:38:04.284Z,6.30
2022-11-24T00:39:11.916Z,6.24
2022-11-24T00:40:13.335Z,6.21
2022-11-24T00:41:15.166Z,6.22
2022-11-24T00:42:17.057Z,6.24
2022-11-24T00:43:19.390Z,6.26
2022-11-24T00:44:20.946Z,6.28
2022-11-24T00:45:22.366Z,6.26
2022-11-24T00:46:25.345Z,6.31
2022-11-24T00:47:37.857Z,6.34
2022-11-24T00:48:39.348Z,6.33
2022-11-24T00:49:40.761Z,6.35
2022-11-24T00:50:42.410Z,6.38
2022-11-24T00:51:44.248Z,6.42
2022-11-24T00:52:45.730Z,6.41
2022-11-24T00:53:47.373Z,6.47
2022-11-24T00:54:48.858Z,6.49
2022-11-24T00:55:51.963Z,6.52
2022-11-24T00:56:53.732Z,6.54
2022-11-24T00:57:55.214Z,6.54
2022-11-24T00:58:56.654Z,6.59
2022-11-24T00:59:58.066Z,6.63
2022-11-24T01:01:09.076Z,6.67
2022-11-24T01:02:10.706Z,6.64
2022-11-24T01:03:15.892Z,6.69
2022-11-24T01:04:18.003Z,6.75
2022-11-24T01:05:19.431Z,6.80
2022-11-24T01:06:24.306Z,6.84
2022-11-24T01:07:25.758Z,6.87
2022-11-24T01:08:27.229Z,6.92
2022-11-24T01:09:28.704Z,6.90
2022-11-24T01:10:30.385Z,6.86
2022-11-24T01:11:54.849Z,6.86
2022-11-24T01:12:56.343Z,6.81
2022-11-24T01:13:59.429Z,6.86
2022-11-24T01:15:00.864Z,6.91
2022-11-24T01:16:02.384Z,6.89
2022-11-24T01:17:04.502Z,6.93
2022-11-24T01:18:06.364Z,6.97
2022-11-24T01:19:07.804Z,7.00
2022-11-24T01:20:09.905Z,7.00
2022-11-24T01:21:12.167Z,7.00
2022-11-24T01:22:13.748Z,7.06
2022-11-24T01:23:15.212Z,7.08
2022-11-24T01:24:16.949Z,7.11
2022-11-24T01:25:18.416Z,7.14
2022-11-24T01:26:21.829Z,7.09
2022-11-24T01:27:23.237Z,7.14
2022-11-24T01:28:24.643Z,7.19
2022-11-24T01:29:26.148Z,7.24
2022-11-24T01:30:27.544Z,7.27
2022-11-24T01:31:29.430Z,7.30
2022-11-24T01:32:33.174Z,7.33
2022-11-24T01:33:36.137Z,7.35
2022-11-24T01:34:37.534Z,7.37
2022-11-24T01:35:38.934Z,7.37
2022-11-24T01:36:40.680Z,7.40
2022-11-24T01:37:42.118Z,7.39
2022-11-24T01:38:43.827Z,7.42
2022-11-24T01:39:45.245Z,7.46
2022-11-24T01:40:47.033Z,7.47
2022-11-24T01:41:48.485Z,7.50
2022-11-24T01:42:52.326Z,7.49
2022-11-24T01:43:55.515Z,7.51
2022-11-24T01:45:30.568Z,7.55
2022-11-24T01:46:42.512Z,7.57
2022-11-24T01:47:44.376Z,7.57
2022-11-24T01:48:52.167Z,7.60
2022-11-24T01:49:57.311Z,7.60
2022-11-24T01:51:08.352Z,7.62
2022-11-24T01:52:33.074Z,7.62
2022-11-24T01:53:35.666Z,7.62
2022-11-24T01:54:41.756Z,7.58
2022-11-24T01:55:43.589Z,7.56
2022-11-24T01:56:48.689Z,7.58
2022-11-24T01:58:19.142Z,7.60
2022-11-24T01:59:21.755Z,7.62
2022-11-24T02:00:23.318Z,7.64
2022-11-24T02:01:25.523Z,7.65
2022-11-24T02:02:29.753Z,7.65
2022-11-24T02:03:35.635Z,7.66
2022-11-24T02:04:37.791Z,7.65
2022-11-24T02:05:44.833Z,7.66
2022-11-24T02:06:48.115Z,7.67
2022-11-24T02:07:50.295Z,7.68
2022-11-24T02:09:11.614Z,7.66
2022-11-24T02:10:16.460Z,7.66
2022-11-24T02:11:19.792Z,7.63
2022-11-24T02:12:27.266Z,7.63
2022-11-24T02:13:28.733Z,7.63
2022-11-24T02:14:30.317Z,7.63
2022-11-24T02:15:32.207Z,7.61
2022-11-24T02:16:37.276Z,7.61
2022-11-24T02:17:38.649Z,7.58
2022-11-24T02:18:41.902Z,7.58
2022-11-24T02:19:53.592Z,7.58
2022-11-24T02:20:55.926Z,7.57
2022-11-24T02:21:57.790Z,7.57
2022-11-24T02:23:11.119Z,7.58
2022-11-24T02:24:25.182Z,7.59
2022-11-24T02:25:39.549Z,7.56
2022-11-24T02:26:45.937Z,7.51
2022-11-24T02:27:53.559Z,7.53
2022-11-24T02:28:55.870Z,7.51
2022-11-24T02:29:57.340Z,7.50
2022-11-24T02:31:00.440Z,7.51
2022-11-24T02:32:04.998Z,7.52
2022-11-24T02:33:06.627Z,7.51
2022-11-24T02:34:08.022Z,7.53
2022-11-24T02:35:10.997Z,7.56
2022-11-24T02:36:12.593Z,7.56
2022-11-24T02:37:14.024Z,7.55
2022-11-24T02:38:15.396Z,7.54
2022-11-24T02:39:16.991Z,7.55
2022-11-24T02:40:25.451Z,7.54
2022-11-24T02:41:29.075Z,7.57
2022-11-24T02:42:35.982Z,7.49
2022-11-24T02:43:42.724Z,7.48
2022-11-24T02:44:49.310Z,7.51
2022-11-24T02:45:50.815Z,7.53
2022-11-24T02:47:06.042Z,7.53
2022-11-24T02:48:07.844Z,7.54
2022-11-24T02:49:09.263Z,7.55
2022-11-24T02:50:10.714Z,7.58
2022-11-24T02:51:12.650Z,7.58
2022-11-24T02:52:14.164Z,7.58
2022-11-24T02:53:15.607Z,7.58
2022-11-24T02:54:17.039Z,7.58
2022-11-24T02:55:18.552Z,7.60
2022-11-24T02:56:20.297Z,7.62
2022-11-24T02:57:23.265Z,7.61
2022-11-24T02:58:24.655Z,7.59
2022-11-24T02:59:26.105Z,7.58
2022-11-24T03:00:27.508Z,7.59
2022-11-24T03:01:29.286Z,7.59
2022-11-24T03:02:30.795Z,7.60
2022-11-24T03:03:32.258Z,7.61
2022-11-24T03:04:34.018Z,7.62
2022-11-24T03:05:35.729Z,7.63
2022-11-24T03:06:38.311Z,7.63
2022-11-24T03:07:39.827Z,7.63
2022-11-24T03:08:41.314Z,7.62
2022-11-24T03:09:42.744Z,7.63
2022-11-24T03:10:44.481Z,7.64
2022-11-24T03:11:46.477Z,7.65
2022-11-24T03:12:47.888Z,7.67
2022-11-24T03:13:49.812Z,7.66
2022-11-24T03:14:51.829Z,7.68
2022-11-24T03:15:53.332Z,7.68
2022-11-24T03:16:55.121Z,7.67
2022-11-24T03:17:56.947Z,7.67
2022-11-24T03:18:59.089Z,7.65
2022-11-24T03:20:04.783Z,7.67
2022-11-24T03:21:07.119Z,7.65
2022-11-24T03:22:08.875Z,7.65
2022-11-24T03:23:10.569Z,7.65
2022-11-24T03:24:11.993Z,7.66
2022-11-24T03:25:13.402Z,7.67
2022-11-24T03:26:18.750Z,7.67
2022-11-24T03:27:21.260Z,7.67
2022-11-24T03:28:22.693Z,7.66
2022-11-24T03:29:24.113Z,7.66
2022-11-24T03:30:26.072Z,7.67
2022-11-24T03:31:27.722Z,7.68
2022-11-24T03:32:29.598Z,7.67
2022-11-24T03:33:31.055Z,7.66
2022-11-24T03:34:32.894Z,7.67
2022-11-24T03:35:34.519Z,7.68
2022-11-24T03:36:35.917Z,7.69
2022-11-24T03:37:37.795Z,7.69
2022-11-24T03:38:39.234Z,7.69
2022-11-24T03:39:40.642Z,7.70
2022-11-24T03:40:42.052Z,7.70
2022-11-24T03:41:43.522Z,7.72
2022-11-24T03:42:45.673Z,7.73
2022-11-24T03:43:47.145Z,7.73
2022-11-24T03:44:48.672Z,7.69
2022-11-24T03:45:51.102Z,7.74
2022-11-24T03:46:52.495Z,7.74
2022-11-24T03:47:54.225Z,7.74
2022-11-24T03:48:55.645Z,7.74
2022-11-24T03:49:57.065Z,7.75
2022-11-24T03:51:01.243Z,7.74
2022-11-24T03:52:07.803Z,7.73
2022-11-24T03:53:10.386Z,7.76
2022-11-24T03:54:11.963Z,7.77
2022-11-24T03:55:13.444Z,7.76
2022-11-24T03:56:14.990Z,7.77
2022-11-24T03:57:16.424Z,7.78
2022-11-24T03:58:18.263Z,7.77
2022-11-24T03:59:19.772Z,7.78
2022-11-24T04:00:21.433Z,7.77
2022-11-24T04:01:23.005Z,7.78
2022-11-24T04:02:24.497Z,7.79
2022-11-24T04:03:26.896Z,7.80
2022-11-24T04:04:28.293Z,7.79
2022-11-24T04:05:29.871Z,7.82
2022-11-24T04:06:31.514Z,7.82
2022-11-24T04:07:33.201Z,7.82
2022-11-24T04:08:35.027Z,7.83
2022-11-24T04:09:36.420Z,7.84
2022-11-24T04:10:39.000Z,7.84
2022-11-24T04:11:58.897Z,7.84
2022-11-24T04:13:00.302Z,7.83
2022-11-24T04:14:01.722Z,7.84
2022-11-24T04:15:03.328Z,7.83
2022-11-24T04:16:08.235Z,7.84
2022-11-24T04:17:09.680Z,7.84
2022-11-24T04:18:13.125Z,7.80
2022-11-24T04:19:14.846Z,7.80
2022-11-24T04:20:17.338Z,7.81
2022-11-24T04:21:19.227Z,7.80
2022-11-24T04:22:20.611Z,7.80
2022-11-24T04:23:22.528Z,7.82
2022-11-24T04:24:24.052Z,7.80
2022-11-24T04:25:25.526Z,7.77
2022-11-24T04:26:26.956Z,7.78
2022-11-24T04:27:28.668Z,7.81
2022-11-24T04:28:30.399Z,7.84
2022-11-24T04:29:31.891Z,7.88
2022-11-24T04:30:33.514Z,7.87
2022-11-24T04:31:34.991Z,7.88
2022-11-24T04:32:37.041Z,7.89
2022-11-24T04:33:38.803Z,7.89
2022-11-24T04:34:40.268Z,7.91
2022-11-24T04:35:41.706Z,7.92
2022-11-24T04:36:43.122Z,7.91
2022-11-24T04:37:44.605Z,7.90
2022-11-24T04:39:19.404Z,7.89
2022-11-24T04:40:09.908Z,7.89
2022-11-24T04:41:11.384Z,7.90
2022-11-24T04:42:13.113Z,7.88
2022-11-24T04:43:16.155Z,7.88
2022-11-24T04:44:17.884Z,7.91
2022-11-24T04:45:19.282Z,7.94
2022-11-24T04:46:20.760Z,7.92
2022-11-24T04:47:23.955Z,7.94
2022-11-24T04:48:25.386Z,7.91
2022-11-24T04:49:27.417Z,7.91
2022-11-24T04:50:28.860Z,7.90
2022-11-24T04:51:30.264Z,7.90
2022-11-24T04:52:31.672Z,7.90
2022-11-24T04:53:33.113Z,7.94
2022-11-24T04:54:35.110Z,7.99
2022-11-24T04:55:38.808Z,8.00
2022-11-24T04:56:41.502Z,8.02
2022-11-24T04:57:42.947Z,8.06
2022-11-24T04:58:44.402Z,8.07
2022-11-24T04:59:46.271Z,8.07
2022-11-24T05:00:47.710Z,8.08
2022-11-24T05:01:49.169Z,8.11
2022-11-24T05:02:50.621Z,8.13
2022-11-24T05:03:56.011Z,8.15
2022-11-24T05:04:57.457Z,8.16
2022-11-24T05:05:59.737Z,8.17
2022-11-24T05:07:01.197Z,8.20
2022-11-24T05:08:03.070Z,8.20
2022-11-24T05:09:05.643Z,8.19
2022-11-24T05:10:26.586Z,8.17
2022-11-24T05:11:28.085Z,8.20
2022-11-24T05:12:31.232Z,8.17
2022-11-24T05:13:33.220Z,8.20
2022-11-24T05:14:35.108Z,8.21
2022-11-24T05:15:38.236Z,8.19
2022-11-24T05:16:39.616Z,8.16
2022-11-24T05:17:41.322Z,8.16
2022-11-24T05:18:42.776Z,8.21
2022-11-24T05:19:44.616Z,8.20
2022-11-24T05:20:46.136Z,8.19
2022-11-24T05:21:47.548Z,8.16
2022-11-24T05:22:49.386Z,8.16
2022-11-24T05:23:50.818Z,8.19
2022-11-24T05:24:52.296Z,8.15
2022-11-24T05:25:53.861Z,8.19
2022-11-24T05:26:55.296Z,8.13
2022-11-24T05:28:03.964Z,8.12
2022-11-24T05:29:05.394Z,8.14
2022-11-24T05:30:07.823Z,8.16
2022-11-24T05:31:09.310Z,8.15
2022-11-24T05:32:10.890Z,8.20
2022-11-24T05:33:19.245Z,8.27
2022-11-24T05:34:21.409Z,8.27
2022-11-24T05:35:23.405Z,8.29
2022-11-24T05:36:43.233Z,8.25
2022-11-24T05:37:45.133Z,8.27
2022-11-24T05:38:46.598Z,8.32
2022-11-24T05:39:48.562Z,8.28
2022-11-24T05:40:49.974Z,8.34
2022-11-24T05:41:51.573Z,8.33
2022-11-24T05:42:53.008Z,8.34
2022-11-24T05:43:54.475Z,8.36
2022-11-24T05:44:56.244Z,8.34
2022-11-24T05:46:01.570Z,8.34
2022-11-24T05:47:03.066Z,8.37
2022-11-24T05:48:06.443Z,8.39
2022-11-24T05:49:07.886Z,8.38
2022-11-24T05:50:11.651Z,8.39
2022-11-24T05:51:13.157Z,8.37
2022-11-24T05:52:15.150Z,8.37
2022-11-24T05:53:16.590Z,8.40
2022-11-24T05:54:18.336Z,8.36
2022-11-24T05:55:19.947Z,8.35
2022-11-24T05:56:21.383Z,8.36
2022-11-24T05:57:22.955Z,8.31
2022-11-24T05:58:24.393Z,8.32
2022-11-24T05:59:26.144Z,8.30
2022-11-24T06:00:28.870Z,8.27
2022-11-24T06:01:30.334Z,8.19
2022-11-24T06:02:31.932Z,8.15
2022-11-24T06:03:33.674Z,8.15
2022-11-24T06:04:35.574Z,8.15
2022-11-24T06:05:37.326Z,8.08
2022-11-24T06:06:38.819Z,8.10
2022-11-24T06:07:40.513Z,8.04
2022-11-24T06:08:41.949Z,8.06
2022-11-24T06:09:43.630Z,8.05
2022-11-24T06:10:45.035Z,8.02
2022-11-24T06:11:47.701Z,7.99
2022-11-24T06:12:49.243Z,7.99
2022-11-24T06:13:50.733Z,7.96
2022-11-24T06:14:52.687Z,7.95
2022-11-24T06:15:54.284Z,7.95
2022-11-24T06:16:55.842Z,7.96
2022-11-24T06:17:57.309Z,7.99
2022-11-24T06:18:59.989Z,8.01
2022-11-24T06:20:01.815Z,7.95
2022-11-24T06:21:10.905Z,7.91
2022-11-24T06:22:13.272Z,7.88
2022-11-24T06:23:14.701Z,7.89
2022-11-24T06:24:16.651Z,7.89
2022-11-24T06:25:18.301Z,7.88
2022-11-24T06:26:19.944Z,7.91
2022-11-24T06:27:21.421Z,7.91
2022-11-24T06:28:22.878Z,7.79
2022-11-24T06:29:24.683Z,7.70
2022-11-24T06:30:26.120Z,7.73
2022-11-24T06:31:27.641Z,7.74
2022-11-24T06:32:29.263Z,7.68
2022-11-24T06:33:35.359Z,7.68
2022-11-24T06:34:37.347Z,7.73
2022-11-24T06:35:38.951Z,7.72
2022-11-24T06:36:40.454Z,7.69
2022-11-24T06:37:41.903Z,7.69
2022-11-24T06:38:43.616Z,7.70
2022-11-24T06:39:45.429Z,7.69
2022-11-24T06:40:46.847Z,7.74
2022-11-24T06:41:50.224Z,7.77
2022-11-24T06:42:52.870Z,7.76
2022-11-24T06:43:54.529Z,7.79
2022-11-24T06:44:56.320Z,7.80
2022-11-24T06:45:58.157Z,7.81
2022-11-24T06:46:59.621Z,7.75
2022-11-24T06:48:01.125Z,7.77
2022-11-24T06:49:03.039Z,7.80
2022-11-24T06:50:05.002Z,7.77
2022-11-24T06:51:10.434Z,7.79
2022-11-24T06:52:12.047Z,7.81
2022-11-24T06:53:13.640Z,7.77
2022-11-24T06:54:17.130Z,7.76
2022-11-24T06:55:18.621Z,7.74
2022-11-24T06:56:21.281Z,7.71
2022-11-24T06:57:22.711Z,7.70
2022-11-24T06:58:24.317Z,7.72
2022-11-24T06:59:26.550Z,7.76
2022-11-24T07:00:29.395Z,7.77
2022-11-24T07:01:31.107Z,7.76
2022-11-24T07:02:32.723Z,7.70
2022-11-24T07:03:34.301Z,7.68
2022-11-24T07:04:36.004Z,7.69
2022-11-24T07:05:37.757Z,7.68
2022-11-24T07:06:41.870Z,7.72
2022-11-24T07:07:43.337Z,7.75
2022-11-24T07:08:45.523Z,7.77
2022-11-24T07:09:46.961Z,7.74
2022-11-24T07:10:48.364Z,7.78
2022-11-24T07:11:49.771Z,7.79
2022-11-24T07:12:51.227Z,7.80
2022-11-24T07:13:58.181Z,7.79
2022-11-24T07:15:01.733Z,7.77
2022-11-24T07:16:13.258Z,7.76
2022-11-24T07:17:14.700Z,7.70
2022-11-24T07:18:16.140Z,7.75
2022-11-24T07:19:23.098Z,7.79
2022-11-24T07:20:26.370Z,7.80
2022-11-24T07:21:29.136Z,7.84
2022-11-24T07:22:30.589Z,7.87
2022-11-24T07:23:32.051Z,7.88
2022-11-24T07:24:33.772Z,7.86
2022-11-24T07:25:35.502Z,7.85
2022-11-24T07:26:37.488Z,7.84
2022-11-24T07:27:39.165Z,7.87
2022-11-24T07:28:40.611Z,7.89
2022-11-24T07:29:42.438Z,7.89
2022-11-24T07:30:43.854Z,7.88
2022-11-24T07:31:46.056Z,7.92
2022-11-24T07:32:47.573Z,7.89
2022-11-24T07:33:50.286Z,7.87
2022-11-24T07:34:52.035Z,7.88
2022-11-24T07:35:53.754Z,7.92
2022-11-24T07:36:55.206Z,7.88
2022-11-24T07:37:57.507Z,7.90
2022-11-24T07:38:59.288Z,7.92
2022-11-24T07:40:00.696Z,7.93
2022-11-24T07:41:04.360Z,7.96
2022-11-24T07:42:06.753Z,7.99
2022-11-24T07:43:08.161Z,7.99
2022-11-24T07:44:09.599Z,8.02
2022-11-24T07:45:11.076Z,7.93
2022-11-24T07:46:14.832Z,7.99
2022-11-24T07:47:16.274Z,8.01
2022-11-24T07:48:17.669Z,7.99
2022-11-24T07:49:19.762Z,8.00
2022-11-24T07:50:21.189Z,8.00
2022-11-24T07:51:22.649Z,8.02
2022-11-24T07:52:26.620Z,8.03
2022-11-24T07:53:29.085Z,7.98
2022-11-24T07:54:31.432Z,8.03
2022-11-24T07:55:33.050Z,8.05
2022-11-24T07:56:34.518Z,8.03
2022-11-24T07:57:36.194Z,8.02
2022-11-24T07:58:38.107Z,8.05
2022-11-24T07:59:39.567Z,8.01
2022-11-24T08:00:40.974Z,8.03
2022-11-24T08:01:42.474Z,8.06
2022-11-24T08:02:44.652Z,8.10
2022-11-24T08:03:46.215Z,8.05
2022-11-24T08:04:47.759Z,8.08
2022-11-24T08:06:22.253Z,8.09
2022-11-24T08:07:17.876Z,8.01
2022-11-24T08:08:19.363Z,8.05
2022-11-24T08:09:20.889Z,8.12
2022-11-24T08:10:22.314Z,8.12
2022-11-24T08:11:24.146Z,8.16
2022-11-24T08:12:25.716Z,8.15
2022-11-24T08:13:27.133Z,8.25
2022-11-24T08:14:28.882Z,8.27
2022-11-24T08:15:30.294Z,8.33
2022-11-24T08:16:32.286Z,8.36
2022-11-24T08:17:33.743Z,8.38
2022-11-24T08:18:36.722Z,8.42
2022-11-24T08:19:38.071Z,8.48
2022-11-24T08:20:39.398Z,8.46
2022-11-24T08:21:40.802Z,8.45
2022-11-24T08:22:42.609Z,8.33
2022-11-24T08:23:44.532Z,8.26
2022-11-24T08:24:49.203Z,8.31
2022-11-24T08:25:55.602Z,8.38
2022-11-24T08:26:58.340Z,8.44
2022-11-24T08:28:01.188Z,8.55
2022-11-24T08:29:02.660Z,8.53
2022-11-24T08:30:04.522Z,8.62
2022-11-24T08:31:08.371Z,8.70
2022-11-24T08:32:11.154Z,8.79
2022-11-24T08:33:12.853Z,8.78
2022-11-24T08:34:14.601Z,8.83
2022-11-24T08:35:16.077Z,8.89
2022-11-24T08:36:19.209Z,8.85
2022-11-24T08:37:20.797Z,8.87
2022-11-24T08:38:22.230Z,8.82
2022-11-24T08:39:23.735Z,8.71
2022-11-24T08:40:25.151Z,8.69
2022-11-24T08:41:27.489Z,8.70
2022-11-24T08:42:28.949Z,8.78
2022-11-24T08:43:30.631Z,8.89
2022-11-24T08:44:32.707Z,8.95
2022-11-24T08:45:38.268Z,9.07
2022-11-24T08:46:42.952Z,9.13
2022-11-24T08:47:44.479Z,8.93
2022-11-24T08:48:52.371Z,8.96
2022-11-24T08:49:53.779Z,9.02
2022-11-24T08:50:55.716Z,9.08
2022-11-24T08:51:57.919Z,8.96
2022-11-24T08:52:59.382Z,8.82
2022-11-24T08:54:01.873Z,8.81
2022-11-24T08:55:03.516Z,8.93
2022-11-24T08:56:06.204Z,8.94
2022-11-24T08:57:07.627Z,8.96
2022-11-24T08:58:09.090Z,9.16
2022-11-24T08:59:14.964Z,9.26
2022-11-24T09:00:22.328Z,9.32
2022-11-24T09:01:24.527Z,9.44
2022-11-24T09:02:26.012Z,9.26
2022-11-24T09:03:27.433Z,9.30
2022-11-24T09:04:29.261Z,9.30
2022-11-24T09:05:59.151Z,9.33
2022-11-24T09:06:52.031Z,9.36
2022-11-24T09:07:53.464Z,9.41
2022-11-24T09:08:55.568Z,9.35
2022-11-24T09:09:57.225Z,9.32
2022-11-24T09:11:07.546Z,9.33
2022-11-24T09:12:14.294Z,9.27
2022-11-24T09:13:16.178Z,9.32
2022-11-24T09:14:18.023Z,9.30
2022-11-24T09:15:20.351Z,9.34
2022-11-24T09:16:28.883Z,9.28
2022-11-24T09:17:30.552Z,9.30
2022-11-24T09:18:33.339Z,9.24
2022-11-24T09:19:35.479Z,9.26
2022-11-24T09:20:37.178Z,9.07
2022-11-24T09:21:39.069Z,9.04
2022-11-24T09:22:41.720Z,8.91
2022-11-24T09:23:44.455Z,8.93
2022-11-24T09:24:45.866Z,8.91
2022-11-24T09:25:47.672Z,8.87
2022-11-24T09:26:49.099Z,8.83
2022-11-24T09:27:51.148Z,8.81
2022-11-24T09:28:54.838Z,8.80
2022-11-24T09:29:56.271Z,8.78
2022-11-24T09:31:01.927Z,8.83
2022-11-24T09:32:06.732Z,8.83
2022-11-24T09:33:08.651Z,8.88
2022-11-24T09:34:13.605Z,8.83
2022-11-24T09:35:15.050Z,8.66
2022-11-24T09:36:16.698Z,8.61
2022-11-24T09:37:18.509Z,8.54
2022-11-24T09:38:20.218Z,8.60
2022-11-24T09:39:21.774Z,8.68
2022-11-24T09:40:23.235Z,8.65
2022-11-24T09:41:46.223Z,8.69
2022-11-24T09:43:17.835Z,8.72
2022-11-24T09:44:49.600Z,8.83
2022-11-24T09:46:20.024Z,8.67
2022-11-24T09:47:46.395Z,8.69
2022-11-24T09:48:51.317Z,8.70
2022-11-24T09:49:55.535Z,8.75
2022-11-24T09:51:01.503Z,8.76
2022-11-24T09:52:09.491Z,8.73
2022-11-24T09:53:31.324Z,8.77
2022-11-24T09:54:34.913Z,8.81
2022-11-24T09:55:42.481Z,8.78
2022-11-24T09:56:45.472Z,8.80
2022-11-24T09:57:49.144Z,8.83
2022-11-24T09:58:55.665Z,8.82
2022-11-24T10:00:01.993Z,8.86
2022-11-24T10:01:35.681Z,8.91
2022-11-24T10:02:37.184Z,8.91
2022-11-24T10:03:43.505Z,8.94
2022-11-24T10:04:47.486Z,8.97
2022-11-24T10:05:51.342Z,8.98
2022-11-24T10:07:09.337Z,8.93
2022-11-24T10:08:34.506Z,8.92
2022-11-24T10:09:57.642Z,8.83
2022-11-24T10:11:11.392Z,8.69
2022-11-24T10:12:33.921Z,8.70
2022-11-24T10:14:04.276Z,8.67
2022-11-24T10:15:25.651Z,8.76
2022-11-24T10:16:39.024Z,8.71
2022-11-24T10:17:45.564Z,8.77
2022-11-24T10:19:14.750Z,8.69
2022-11-24T10:20:26.663Z,8.55
2022-11-24T10:21:44.944Z,8.53
2022-11-24T10:23:01.387Z,8.60
2022-11-24T10:24:34.439Z,8.61
2022-11-24T10:25:47.477Z,8.58
2022-11-24T10:27:00.644Z,8.51
2022-11-24T10:28:04.901Z,8.44
2022-11-24T10:29:15.571Z,8.54
2022-11-24T10:30:23.830Z,8.56
2022-11-24T10:31:42.520Z,8.57
2022-11-24T10:32:47.368Z,8.61
2022-11-24T10:33:49.372Z,8.60
2022-11-24T10:34:51.160Z,8.60
2022-11-24T10:35:56.971Z,8.57
2022-11-24T10:37:08.250Z,8.55
2022-11-24T10:38:21.820Z,8.58
2022-11-24T10:39:39.037Z,8.43
2022-11-24T10:40:57.042Z,8.38
2022-11-24T10:42:07.559Z,8.42
2022-11-24T10:43:12.465Z,8.25
2022-11-24T10:44:15.130Z,8.26
2022-11-24T10:45:20.188Z,8.25
2022-11-24T10:46:27.463Z,8.30
2022-11-24T10:47:30.717Z,8.27
2022-11-24T10:48:41.069Z,8.33
2022-11-24T10:49:51.199Z,8.33
2022-11-24T10:50:56.700Z,8.29
2022-11-24T10:52:07.097Z,8.27
2022-11-24T10:53:08.541Z,8.28
2022-11-24T10:54:20.355Z,8.32
2022-11-24T10:55:22.135Z,8.34
2022-11-24T10:56:23.585Z,8.33
2022-11-24T10:57:29.006Z,8.30
2022-11-24T10:58:36.050Z,8.24
2022-11-24T10:59:40.303Z,8.28
2022-11-24T11:00:41.807Z,8.30
2022-11-24T11:01:43.301Z,8.25
2022-11-24T11:02:45.762Z,8.28
2022-11-24T11:03:56.300Z,8.36
2022-11-24T11:04:58.594Z,8.27
2022-11-24T11:06:11.754Z,8.30
2022-11-24T11:07:25.377Z,8.36
2022-11-24T11:08:34.971Z,8.32
2022-11-24T11:09:37.041Z,8.30
2022-11-24T11:10:38.705Z,8.16
2022-11-24T11:11:40.226Z,8.09
2022-11-24T11:12:44.400Z,8.10
2022-11-24T11:14:01.718Z,8.16
2022-11-24T11:15:23.207Z,8.20
2022-11-24T11:16:41.435Z,8.20
2022-11-24T11:17:44.775Z,8.14
2022-11-24T11:18:49.336Z,8.17
2022-11-24T11:19:58.447Z,8.14
2022-11-24T11:21:03.787Z,8.14
2022-11-24T11:22:11.286Z,8.20
2022-11-24T11:23:22.891Z,8.30
2022-11-24T11:24:24.438Z,8.30
2022-11-24T11:25:34.550Z,8.25
2022-11-24T11:26:38.204Z,8.32
2022-11-24T11:27:41.124Z,8.25
2022-11-24T11:28:56.562Z,8.18
2022-11-24T11:31:41.154Z,8.30
2022-11-24T11:34:28.470Z,8.16
2022-11-24T11:35:36.522Z,8.13
2022-11-24T11:36:46.777Z,8.12
2022-11-24T11:37:49.585Z,8.18
2022-11-24T11:38:51.158Z,8.21
2022-11-24T11:39:55.108Z,8.30
2022-11-24T11:40:56.941Z,8.34
2022-11-24T11:42:37.901Z,8.45
2022-11-24T11:43:41.020Z,8.53
2022-11-24T11:44:57.923Z,8.55
2022-11-24T11:46:05.105Z,8.63
2022-11-24T11:47:26.215Z,8.72
2022-11-24T11:48:43.366Z,8.80
2022-11-24T11:49:48.359Z,8.83
2022-11-24T11:52:40.243Z,8.74
2022-11-24T11:53:51.131Z,8.78
2022-11-24T11:55:05.315Z,8.86
2022-11-24T11:56:25.029Z,8.91
2022-11-24T11:57:40.538Z,8.92
2022-11-24T11:59:10.042Z,8.95
2022-11-24T12:00:22.033Z,8.95
2022-11-24T12:01:50.712Z,8.95
2022-11-24T12:03:29.830Z,8.93
2022-11-24T12:04:40.307Z,8.97
2022-11-24T12:05:55.226Z,9.00
2022-11-24T12:07:00.053Z,9.05
2022-11-24T12:09:03.378Z,9.05
2022-11-24T12:10:05.213Z,9.01
2022-11-24T12:11:18.535Z,9.03
2022-11-24T12:12:38.459Z,9.09
2022-11-24T12:14:23.762Z,9.14
2022-11-24T12:15:37.939Z,9.21
2022-11-24T12:16:52.148Z,9.24
2022-11-24T12:18:33.012Z,9.12
2022-11-24T12:20:02.258Z,9.20
2022-11-24T12:21:12.885Z,9.25
2022-11-24T12:22:26.817Z,9.31
2022-11-24T12:23:57.180Z,9.33
2022-11-24T12:25:23.342Z,9.39
2022-11-24T12:26:44.074Z,9.32
2022-11-24T12:28:19.042Z,9.33
2022-11-24T12:29:34.542Z,9.39
2022-11-24T12:31:04.498Z,9.48
2022-11-24T12:32:27.783Z,9.60
2022-11-24T12:33:52.312Z,9.63
2022-11-24T12:35:06.606Z,9.67
2022-11-24T12:36:27.132Z,9.54
2022-11-24T12:37:54.820Z,9.54
2022-11-24T12:39:19.629Z,9.63
2022-11-24T12:41:25.499Z,9.72
2022-11-24T12:43:05.685Z,9.73
2022-11-24T12:44:27.186Z,9.71
2022-11-24T12:45:37.833Z,9.76
2022-11-24T12:47:35.029Z,9.78
2022-11-24T12:49:08.375Z,9.69
2022-11-24T12:50:14.581Z,9.87
2022-11-24T12:51:18.969Z,9.97
2022-11-24T12:52:26.747Z,9.99
2022-11-24T12:53:29.372Z,10.00
2022-11-24T12:54:40.626Z,9.99
2022-11-24T12:55:44.054Z,10.04
2022-11-24T12:56:56.743Z,10.11
2022-11-24T12:58:14.993Z,9.58
2022-11-24T12:59:31.316Z,9.52
2022-11-24T13:00:47.277Z,9.56
2022-11-24T13:02:13.663Z,9.46
2022-11-24T13:03:40.700Z,9.43
2022-11-24T13:05:08.711Z,9.50
2022-11-24T13:06:52.887Z,9.38
2022-11-24T13:07:59.283Z,9.41
2022-11-24T13:09:09.244Z,9.41
2022-11-24T13:10:54.301Z,9.45
2022-11-24T13:11:53.296Z,9.57
2022-11-24T13:13:08.108Z,9.61
2022-11-24T13:14:22.772Z,9.58
2022-11-24T13:15:45.245Z,9.60
2022-11-24T13:17:13.384Z,9.67
2022-11-24T13:18:43.118Z,9.63
2022-11-24T13:19:44.644Z,9.64
2022-11-24T13:20:46.524Z,9.61
2022-11-24T13:21:52.774Z,9.69
2022-11-24T13:22:57.113Z,9.77
2022-11-24T13:24:01.058Z,9.83
2022-11-24T13:25:30.355Z,9.83
2022-11-24T13:26:44.180Z,10.03
2022-11-24T13:27:48.574Z,10.04
2022-11-24T13:29:13.472Z,10.09
2022-11-24T13:30:35.093Z,10.10
2022-11-24T13:31:36.650Z,10.14
2022-11-24T13:32:38.082Z,10.17
2022-11-24T13:33:39.883Z,10.17
2022-11-24T13:34:45.438Z,10.20
2022-11-24T13:36:02.710Z,10.19
2022-11-24T13:37:31.681Z,10.23
2022-11-24T13:38:46.059Z,10.27
2022-11-24T13:39:51.096Z,10.00
2022-11-24T13:41:20.971Z,10.00
2022-11-24T13:42:42.922Z,9.92
2022-11-24T13:43:37.424Z,9.82
2022-11-24T13:44:49.916Z,9.82
2022-11-24T13:45:54.003Z,9.87
2022-11-24T13:47:05.302Z,9.91
2022-11-24T13:48:19.650Z,9.94
2022-11-24T13:49:21.319Z,9.95
2022-11-24T13:50:44.443Z,9.97
2022-11-24T13:51:46.085Z,9.92
2022-11-24T13:52:53.325Z,9.83
2022-11-24T13:53:56.714Z,9.81
2022-11-24T13:54:59.198Z,9.86
2022-11-24T13:56:09.792Z,9.86
2022-11-24T13:57:34.811Z,9.84
2022-11-24T13:58:39.293Z,9.74
2022-11-24T13:59:41.742Z,9.74
2022-11-24T14:01:24.835Z,9.71
2022-11-24T14:02:26.640Z,9.64
2022-11-24T14:03:39.908Z,9.62
2022-11-24T14:04:43.905Z,9.62
2022-11-24T14:05:52.118Z,9.62
2022-11-24T14:06:53.777Z,9.62
2022-11-24T14:07:55.364Z,9.55
2022-11-24T14:09:00.044Z,9.58
2022-11-24T14:10:02.226Z,9.65
2022-11-24T14:11:12.985Z,9.64
2022-11-24T14:12:25.292Z,9.62
2022-11-24T14:13:34.467Z,9.70
2022-11-24T14:14:36.278Z,9.58
2022-11-24T14:15:38.338Z,9.58
2022-11-24T14:16:39.810Z,9.60
2022-11-24T14:17:41.288Z,9.59
2022-11-24T14:18:45.625Z,9.62
2022-11-24T14:19:49.717Z,9.55
2022-11-24T14:20:51.289Z,9.49
2022-11-24T14:21:52.739Z,9.43
2022-11-24T14:22:54.462Z,9.48
2022-11-24T14:24:01.192Z,9.50
2022-11-24T14:25:03.999Z,9.47
2022-11-24T14:26:05.637Z,9.48
2022-11-24T14:27:14.456Z,9.49
2022-11-24T14:28:28.315Z,9.49
2022-11-24T14:29:33.096Z,9.45
2022-11-24T14:30:34.849Z,9.44
2022-11-24T14:31:36.435Z,9.51
2022-11-24T14:32:37.937Z,9.46
2022-11-24T14:33:39.407Z,9.41
2022-11-24T14:34:40.850Z,9.33
2022-11-24T14:35:45.941Z,9.32
2022-11-24T14:36:48.537Z,9.21
2022-11-24T14:37:49.986Z,9.25
2022-11-24T14:38:51.417Z,9.31
2022-11-24T14:39:54.682Z,9.40
2022-11-24T14:40:56.637Z,9.36